Terminal Aerodrome Forecast
Issued by NWS

Home | Current Version | Previous Version | Graphics & Text | Print | Product List | Glossary On
Versions: 1 2 3 4 5 6 7 8 9 10 11 12 13 14 15 16 17 18 19 20
000
FTUS43 KBIS 221100
TAFMOT
TAF
KMOT 221140Z 2212/2312 06007KT 1SM BR OVC002
      TEMPO 2212/2216 1/2SM FZFG OVC001
     FM221600 03010KT 4SM -SN BR OVC005
     FM222100 36014KT 6SM -SN BR OVC012
     FM230300 31016KT 4SM -SN BR OVC008=

USA.gov is the U.S. government's official web portal to all federal, state and local government web resources and services.